Time;durP1;ratioP1;P1;durP2;ratioP2;P2;SDS_P1;SDS_P2;PMS_P1;PMS_P2;Temp;Humidity;BMP_temperature;BMP_pressure;BME280_temperature;BME280_humidity;BME280_pressure;Samples;Min_cycle;Max_cycle;Signal;HPM_P1;HPM_P2
2022/11/23 00:00:35;;;;;;;5.15;2.00;;;;;;;;;;5117088;28;20654;-65
2022/11/23 00:03:03;;;;;;;5.20;3.03;;;;;;;;;;5117255;28;20283;-66
2022/11/23 00:05:31;;;;;;;5.43;1.97;;;;;;;;;;5116937;28;20928;-66
2022/11/23 00:07:59;;;;;;;3.58;2.45;;;;;;;;;;5117123;28;20450;-66
2022/11/23 00:10:26;;;;;;;5.40;2.30;;;;;;;;;;5116837;28;20203;-65
2022/11/23 00:12:53;;;;;;;4.53;2.03;;;;;;;;;;5117067;28;20973;-65
2022/11/23 00:15:21;;;;;;;3.70;2.20;;;;;;;;;;5117049;28;20993;-65
2022/11/23 00:17:48;;;;;;;5.13;1.80;;;;;;;;;;5117363;28;20807;-66
2022/11/23 00:20:15;;;;;;;4.30;2.20;;;;;;;;;;5117018;28;20199;-65
2022/11/23 00:22:42;;;;;;;6.90;1.93;;;;;;;;;;5117294;28;20445;-65
2022/11/23 00:25:11;;;;;;;6.50;2.57;;;;;;;;;;5116798;28;20447;-65
2022/11/23 00:27:38;;;;;;;3.47;2.60;;;;;;;;;;5117726;28;20435;-65
2022/11/23 00:30:06;;;;;;;5.77;2.20;;;;;;;;;;5116720;28;20434;-65
2022/11/23 00:32:33;;;;;;;3.27;1.77;;;;;;;;;;5116899;28;20446;-65
2022/11/23 00:35:00;;;;;;;2.95;1.85;;;;;;;;;;5116563;28;20496;-65
2022/11/23 00:37:27;;;;;;;6.20;2.23;;;;;;;;;;5116362;28;20647;-65
2022/11/23 00:39:54;;;;;;;4.90;2.72;;;;;;;;;;5116562;28;20773;-65
2022/11/23 00:42:23;;;;;;;5.22;2.15;;;;;;;;;;5116304;28;20223;-65
2022/11/23 00:44:50;;;;;;;4.80;2.20;;;;;;;;;;5116379;28;20292;-66
2022/11/23 00:47:17;;;;;;;7.03;2.90;;;;;;;;;;5116136;28;20997;-65
2022/11/23 00:49:44;;;;;;;3.00;2.20;;;;;;;;;;5116204;28;20950;-66
2022/11/23 00:52:11;;;;;;;4.83;2.77;;;;;;;;;;5116456;28;20797;-65
2022/11/23 00:54:39;;;;;;;4.07;2.20;;;;;;;;;;5116266;28;20497;-65
2022/11/23 00:57:06;;;;;;;3.23;2.60;;;;;;;;;;5116946;28;20193;-65
2022/11/23 00:59:34;;;;;;;2.95;2.17;;;;;;;;;;5115495;28;20432;-65
2022/11/23 01:02:02;;;;;;;4.40;2.30;;;;;;;;;;5116457;28;20222;-65
2022/11/23 01:04:29;;;;;;;5.77;2.53;;;;;;;;;;5116404;28;20453;-66
2022/11/23 01:06:57;;;;;;;3.90;2.55;;;;;;;;;;5115837;28;20434;-65
2022/11/23 01:09:25;;;;;;;3.67;2.58;;;;;;;;;;5115961;28;20673;-65
2022/11/23 01:11:52;;;;;;;4.63;2.63;;;;;;;;;;5116495;28;20240;-65
2022/11/23 01:14:20;;;;;;;3.38;2.10;;;;;;;;;;5116160;28;20445;-66
2022/11/23 01:16:49;;;;;;;9.95;2.70;;;;;;;;;;5115988;28;20196;-65
2022/11/23 01:19:17;;;;;;;7.82;2.45;;;;;;;;;;5115911;28;20189;-65
2022/11/23 01:21:44;;;;;;;5.25;2.33;;;;;;;;;;5115835;28;20681;-65
2022/11/23 01:24:13;;;;;;;6.60;2.20;;;;;;;;;;5115757;28;20189;-66
2022/11/23 01:26:40;;;;;;;10.43;3.03;;;;;;;;;;5115476;28;20445;-65
2022/11/23 01:29:07;;;;;;;3.93;2.87;;;;;;;;;;5115399;28;20453;-66
2022/11/23 01:31:34;;;;;;;7.07;2.90;;;;;;;;;;5115650;28;20434;-66
2022/11/23 01:34:04;;;;;;;5.63;2.80;;;;;;;;;;5115566;28;20203;-66
2022/11/23 01:36:32;;;;;;;3.27;2.33;;;;;;;;;;5115261;28;21065;-66
2022/11/23 01:39:00;;;;;;;5.53;2.17;;;;;;;;;;5115087;28;20440;-66
2022/11/23 01:41:29;;;;;;;3.40;2.03;;;;;;;;;;5115667;28;20451;-65
2022/11/23 01:43:56;;;;;;;5.17;2.90;;;;;;;;;;5115322;28;20193;-66
2022/11/23 01:46:23;;;;;;;10.43;2.77;;;;;;;;;;5115372;28;20446;-64
2022/11/23 01:48:53;;;;;;;7.47;3.35;;;;;;;;;;5114964;28;20445;-65
2022/11/23 01:51:23;;;;;;;5.13;2.70;;;;;;;;;;5115397;28;20203;-65
2022/11/23 01:53:52;;;;;;;5.22;2.45;;;;;;;;;;5115617;28;20559;-66
2022/11/23 01:56:21;;;;;;;4.28;2.40;;;;;;;;;;5114968;28;20219;-66
2022/11/23 01:58:51;;;;;;;5.60;2.45;;;;;;;;;;5115177;28;20193;-66
2022/11/23 02:01:18;;;;;;;3.80;2.40;;;;;;;;;;5114660;28;20188;-66
2022/11/23 02:03:47;;;;;;;5.60;2.65;;;;;;;;;;5115002;28;20529;-65
2022/11/23 02:06:15;;;;;;;3.15;2.20;;;;;;;;;;5114902;28;20207;-66
2022/11/23 02:08:44;;;;;;;5.63;3.30;;;;;;;;;;5114982;28;20199;-66
2022/11/23 02:11:12;;;;;;;6.00;2.70;;;;;;;;;;5114999;28;20449;-65
2022/11/23 02:13:39;;;;;;;6.35;3.17;;;;;;;;;;5114802;28;20791;-66
2022/11/23 02:16:06;;;;;;;4.10;2.70;;;;;;;;;;5114818;28;20285;-66
2022/11/23 02:18:36;;;;;;;3.80;2.83;;;;;;;;;;5114936;28;20917;-65
2022/11/23 02:21:04;;;;;;;5.07;3.05;;;;;;;;;;5114600;28;20192;-65
2022/11/23 02:23:34;;;;;;;6.95;3.33;;;;;;;;;;5114437;28;20650;-65
2022/11/23 02:26:05;;;;;;;9.50;2.75;;;;;;;;;;5114961;28;20242;-65
2022/11/23 02:28:35;;;;;;;4.05;2.78;;;;;;;;;;5114289;28;20183;-65
2022/11/23 02:31:02;;;;;;;7.55;3.08;;;;;;;;;;5114735;28;20537;-65
2022/11/23 02:33:30;;;;;;;6.55;2.63;;;;;;;;;;5114899;28;20201;-66
2022/11/23 02:35:58;;;;;;;5.28;3.35;;;;;;;;;;5114292;28;20221;-66
2022/11/23 02:38:27;;;;;;;5.18;2.75;;;;;;;;;;5114374;28;20197;-65
2022/11/23 02:40:54;;;;;;;6.53;2.55;;;;;;;;;;5113898;28;20193;-65
2022/11/23 02:43:23;;;;;;;4.60;3.30;;;;;;;;;;5114019;28;20224;-65
2022/11/23 02:45:51;;;;;;;5.70;2.70;;;;;;;;;;5114494;28;20808;-65
2022/11/23 02:48:18;;;;;;;5.72;2.65;;;;;;;;;;5114741;28;20199;-65
2022/11/23 02:50:45;;;;;;;3.90;2.83;;;;;;;;;;5114361;28;20554;-65
2022/11/23 02:53:13;;;;;;;7.70;3.20;;;;;;;;;;5114208;28;20803;-65
2022/11/23 02:55:40;;;;;;;3.63;2.55;;;;;;;;;;5113653;28;20978;-65
2022/11/23 02:58:07;;;;;;;9.18;2.50;;;;;;;;;;5114314;28;20201;-65
2022/11/23 03:00:36;;;;;;;8.70;2.67;;;;;;;;;;5114001;28;20215;-65
2022/11/23 03:03:04;;;;;;;6.50;2.90;;;;;;;;;;5114110;28;20196;-65
2022/11/23 03:05:31;;;;;;;4.72;2.83;;;;;;;;;;5113954;28;20457;-65
2022/11/23 03:07:58;;;;;;;4.07;2.50;;;;;;;;;;5114058;28;20197;-65
2022/11/23 03:10:26;;;;;;;5.67;2.63;;;;;;;;;;5113728;28;20436;-66
2022/11/23 03:12:55;;;;;;;6.40;3.00;;;;;;;;;;5114029;28;20856;-66
2022/11/23 03:15:22;;;;;;;9.00;5.07;;;;;;;;;;5113862;28;20478;-66
2022/11/23 03:17:50;;;;;;;7.27;3.17;;;;;;;;;;5113971;28;20449;-65
2022/11/23 03:20:17;;;;;;;5.63;3.10;;;;;;;;;;5113821;28;20787;-65
2022/11/23 03:22:45;;;;;;;6.27;3.10;;;;;;;;;;5116515;28;20439;-65
2022/11/23 03:25:12;;;;;;;4.37;2.67;;;;;;;;;;5118019;28;20453;-65
2022/11/23 03:27:39;;;;;;;6.87;2.83;;;;;;;;;;5118045;28;20445;-65
2022/11/23 03:30:07;;;;;;;5.53;2.90;;;;;;;;;;5117835;28;20443;-66
2022/11/23 03:32:35;;;;;;;6.17;2.87;;;;;;;;;;5117963;28;20528;-65
2022/11/23 03:35:03;;;;;;;4.17;3.07;;;;;;;;;;5117902;28;20449;-66
2022/11/23 03:37:31;;;;;;;13.40;3.77;;;;;;;;;;5117816;28;20442;-66
2022/11/23 03:39:58;;;;;;;8.90;4.60;;;;;;;;;;5117853;28;20439;-66
2022/11/23 03:42:25;;;;;;;9.07;3.37;;;;;;;;;;5117496;28;20470;-65
2022/11/23 03:44:52;;;;;;;8.47;3.77;;;;;;;;;;5118600;28;20449;-66
2022/11/23 03:47:19;;;;;;;7.67;3.13;;;;;;;;;;5117618;28;20868;-65
2022/11/23 03:49:46;;;;;;;8.07;3.40;;;;;;;;;;5117975;28;20442;-65
2022/11/23 03:52:15;;;;;;;7.23;3.40;;;;;;;;;;5117558;28;20439;-65
2022/11/23 03:54:42;;;;;;;6.63;3.27;;;;;;;;;;5117551;28;20797;-65
2022/11/23 03:57:09;;;;;;;7.43;4.30;;;;;;;;;;5117532;28;20475;-65
2022/11/23 03:59:37;;;;;;;4.53;2.67;;;;;;;;;;5117489;28;20446;-65
2022/11/23 04:02:04;;;;;;;7.70;3.23;;;;;;;;;;5117009;28;20445;-65
2022/11/23 04:04:32;;;;;;;10.98;3.33;;;;;;;;;;5117357;28;20446;-65
2022/11/23 04:06:59;;;;;;;6.33;2.97;;;;;;;;;;5116930;28;20203;-66
2022/11/23 04:09:27;;;;;;;8.93;2.90;;;;;;;;;;5116968;28;20440;-66
2022/11/23 04:11:55;;;;;;;8.32;3.38;;;;;;;;;;5116752;28;20457;-66
2022/11/23 04:14:22;;;;;;;3.80;2.90;;;;;;;;;;5117152;28;20544;-66
2022/11/23 04:16:49;;;;;;;4.60;2.80;;;;;;;;;;5116975;28;20834;-66
2022/11/23 04:19:16;;;;;;;6.90;3.33;;;;;;;;;;5117337;28;20551;-66
2022/11/23 04:21:43;;;;;;;5.77;2.73;;;;;;;;;;5117030;28;20449;-65
2022/11/23 04:24:10;;;;;;;6.50;3.20;;;;;;;;;;5116997;28;20442;-65
2022/11/23 04:26:39;;;;;;;4.90;3.20;;;;;;;;;;5116595;28;20442;-66
2022/11/23 04:29:06;;;;;;;9.50;3.20;;;;;;;;;;5116890;28;20189;-66
2022/11/23 04:31:33;;;;;;;8.10;3.30;;;;;;;;;;5116401;28;20442;-65
2022/11/23 04:34:00;;;;;;;14.73;3.70;;;;;;;;;;5115011;28;20444;-66
2022/11/23 04:36:28;;;;;;;11.77;3.20;;;;;;;;;;5116618;28;20484;-66
2022/11/23 04:38:55;;;;;;;6.22;3.30;;;;;;;;;;5116850;28;20825;-65
2022/11/23 04:41:22;;;;;;;4.90;3.50;;;;;;;;;;5116445;28;20197;-65
2022/11/23 04:43:51;;;;;;;9.83;3.97;;;;;;;;;;5117148;28;20477;-65
2022/11/23 04:46:19;;;;;;;5.40;3.05;;;;;;;;;;5116784;28;20464;-65
2022/11/23 04:48:46;;;;;;;11.00;3.65;;;;;;;;;;5116565;28;20189;-65
2022/11/23 04:51:13;;;;;;;6.53;3.30;;;;;;;;;;5116175;28;20260;-64
2022/11/23 04:53:41;;;;;;;6.83;3.70;;;;;;;;;;5116313;28;20189;-65
2022/11/23 04:56:08;;;;;;;7.10;3.20;;;;;;;;;;5116195;28;20826;-65
2022/11/23 04:58:36;;;;;;;4.43;3.40;;;;;;;;;;5116165;28;20524;-65
2022/11/23 05:01:05;;;;;;;11.73;3.37;;;;;;;;;;5117126;28;20808;-65
2022/11/23 05:03:33;;;;;;;3.97;3.10;;;;;;;;;;5116297;28;20791;-65
2022/11/23 05:06:01;;;;;;;12.20;3.77;;;;;;;;;;5115460;28;20542;-65
2022/11/23 05:08:28;;;;;;;9.57;3.53;;;;;;;;;;5115509;28;20435;-65
2022/11/23 05:10:56;;;;;;;7.93;3.72;;;;;;;;;;5116243;28;20446;-65
2022/11/23 05:13:23;;;;;;;8.23;4.13;;;;;;;;;;5115403;28;20653;-64
2022/11/23 05:15:50;;;;;;;10.02;5.65;;;;;;;;;;5115842;28;20237;-65
2022/11/23 05:18:18;;;;;;;10.60;5.78;;;;;;;;;;5115468;28;20193;-64
2022/11/23 05:20:47;;;;;;;9.60;4.95;;;;;;;;;;5115965;28;20193;-65
2022/11/23 05:23:14;;;;;;;9.10;5.87;;;;;;;;;;5115762;28;20199;-65
2022/11/23 05:25:41;;;;;;;8.13;5.43;;;;;;;;;;5115694;28;20451;-65
2022/11/23 05:28:10;;;;;;;13.82;7.32;;;;;;;;;;5115398;28;20453;-65
2022/11/23 05:30:37;;;;;;;9.83;7.80;;;;;;;;;;5115373;28;20193;-66
2022/11/23 05:33:04;;;;;;;13.00;7.37;;;;;;;;;;5115229;28;20488;-65
2022/11/23 05:35:34;;;;;;;10.63;7.80;;;;;;;;;;5115175;28;20445;-66
2022/11/23 05:38:01;;;;;;;10.10;7.00;;;;;;;;;;5115809;28;20196;-66
2022/11/23 05:40:28;;;;;;;17.83;7.67;;;;;;;;;;5115452;28;20529;-65
2022/11/23 05:42:56;;;;;;;10.73;6.88;;;;;;;;;;5115382;28;20892;-65
2022/11/23 05:45:23;;;;;;;9.93;6.15;;;;;;;;;;5114456;28;20641;-65
2022/11/23 05:47:51;;;;;;;8.17;5.80;;;;;;;;;;5114795;28;20654;-65
2022/11/23 05:50:18;;;;;;;7.40;6.03;;;;;;;;;;5114914;28;20492;-66
2022/11/23 05:52:47;;;;;;;7.83;4.90;;;;;;;;;;5115111;28;20556;-65
2022/11/23 05:55:14;;;;;;;5.80;4.70;;;;;;;;;;5114780;27;20448;-65
2022/11/23 05:57:41;;;;;;;8.75;5.22;;;;;;;;;;5114554;28;20462;-66
2022/11/23 06:00:10;;;;;;;8.23;6.15;;;;;;;;;;5115012;28;20644;-65
2022/11/23 06:02:37;;;;;;;6.57;4.30;;;;;;;;;;5114862;28;20193;-65
2022/11/23 06:05:04;;;;;;;11.60;4.60;;;;;;;;;;5114581;28;20862;-65
2022/11/23 06:07:32;;;;;;;10.30;4.07;;;;;;;;;;5114718;28;20439;-65
2022/11/23 06:10:01;;;;;;;5.87;4.00;;;;;;;;;;5114450;28;20443;-65
2022/11/23 06:12:29;;;;;;;9.60;4.90;;;;;;;;;;5115014;28;20461;-66
2022/11/23 06:14:56;;;;;;;8.30;4.30;;;;;;;;;;5114653;28;20436;-65
2022/11/23 06:17:23;;;;;;;5.20;4.70;;;;;;;;;;5114585;28;20471;-65
2022/11/23 06:19:51;;;;;;;6.47;4.90;;;;;;;;;;5114463;28;20445;-65
2022/11/23 06:22:18;;;;;;;9.40;5.10;;;;;;;;;;5114572;28;20195;-65
2022/11/23 06:24:45;;;;;;;76.77;39.57;;;;;;;;;;5114531;28;20195;-65
2022/11/23 06:27:16;;;;;;;9.47;5.93;;;;;;;;;;5114428;28;20473;-65
2022/11/23 06:29:43;;;;;;;7.50;5.97;;;;;;;;;;5114095;28;20976;-65
2022/11/23 06:32:11;;;;;;;9.40;5.30;;;;;;;;;;5114512;28;20435;-65
2022/11/23 06:34:38;;;;;;;9.93;5.70;;;;;;;;;;5113883;28;21036;-66
2022/11/23 06:37:05;;;;;;;9.57;5.93;;;;;;;;;;5113887;28;20474;-65
2022/11/23 06:39:32;;;;;;;13.32;5.82;;;;;;;;;;5114338;28;20196;-66
2022/11/23 06:41:59;;;;;;;10.35;5.38;;;;;;;;;;5113830;28;20315;-65
2022/11/23 06:44:29;;;;;;;8.73;6.35;;;;;;;;;;5114322;28;20193;-65
2022/11/23 06:46:56;;;;;;;10.15;5.60;;;;;;;;;;5114302;28;20193;-65
2022/11/23 06:49:24;;;;;;;6.00;5.15;;;;;;;;;;5112864;28;20200;-67
2022/11/23 06:51:51;;;;;;;9.27;4.55;;;;;;;;;;5112816;28;20235;-67
2022/11/23 06:54:19;;;;;;;7.90;5.80;;;;;;;;;;5112933;28;20293;-67
2022/11/23 06:56:46;;;;;;;13.02;6.30;;;;;;;;;;5112807;28;20470;-68
2022/11/23 06:59:14;;;;;;;9.20;5.25;;;;;;;;;;5113300;28;20193;-67
2022/11/23 07:01:43;;;;;;;6.23;4.40;;;;;;;;;;5113619;28;20559;-67
2022/11/23 07:04:10;;;;;;;9.83;4.03;;;;;;;;;;5113561;28;20450;-67
2022/11/23 07:06:40;;;;;;;7.63;4.28;;;;;;;;;;5113685;28;20453;-67
2022/11/23 07:09:08;;;;;;;8.00;4.45;;;;;;;;;;5113698;28;20193;-67
2022/11/23 07:11:35;;;;;;;14.18;4.60;;;;;;;;;;5114107;28;20288;-68
2022/11/23 07:14:02;;;;;;;6.22;4.18;;;;;;;;;;5113731;28;20283;-67
2022/11/23 07:16:30;;;;;;;12.83;4.90;;;;;;;;;;5113485;28;20313;-68
2022/11/23 07:18:58;;;;;;;10.33;3.90;;;;;;;;;;5113657;28;20442;-67
2022/11/23 07:21:26;;;;;;;9.07;3.45;;;;;;;;;;5113780;28;20442;-67
2022/11/23 07:23:53;;;;;;;10.35;3.60;;;;;;;;;;5113472;28;20199;-70
2022/11/23 07:26:20;;;;;;;7.50;4.00;;;;;;;;;;5113805;28;20201;-67
2022/11/23 07:28:47;;;;;;;7.53;3.70;;;;;;;;;;5113827;28;20936;-67
2022/11/23 07:31:15;;;;;;;12.97;4.10;;;;;;;;;;5113355;28;20442;-67
2022/11/23 07:33:47;;;;;;;6.53;3.73;;;;;;;;;;5113397;28;20447;-68
2022/11/23 07:36:15;;;;;;;12.93;4.03;;;;;;;;;;5113627;28;20433;-69
2022/11/23 07:38:42;;;;;;;10.30;3.83;;;;;;;;;;5113393;28;20434;-67
2022/11/23 07:41:10;;;;;;;9.70;3.57;;;;;;;;;;5113640;28;20645;-67
2022/11/23 07:43:37;;;;;;;7.97;4.17;;;;;;;;;;5114041;28;20474;-67
2022/11/23 07:46:04;;;;;;;6.10;3.40;;;;;;;;;;5113410;28;20533;-68
2022/11/23 07:48:31;;;;;;;8.02;3.53;;;;;;;;;;5113317;28;20438;-67
2022/11/23 07:50:58;;;;;;;6.33;4.07;;;;;;;;;;5113492;28;20195;-67
2022/11/23 07:53:27;;;;;;;9.90;3.88;;;;;;;;;;5113824;28;20445;-68
2022/11/23 07:55:57;;;;;;;6.13;4.03;;;;;;;;;;5113691;28;20235;-68
2022/11/23 07:58:24;;;;;;;12.67;4.33;;;;;;;;;;5113103;28;20478;-68
2022/11/23 08:00:52;;;;;;;51.53;9.55;;;;;;;;;;5113672;28;20791;-68
2022/11/23 08:03:20;;;;;;;42.95;9.10;;;;;;;;;;5113529;28;20215;-68
2022/11/23 08:05:47;;;;;;;15.70;4.60;;;;;;;;;;5113650;28;20196;-68
2022/11/23 08:08:14;;;;;;;11.48;4.45;;;;;;;;;;5114968;28;20438;-68
2022/11/23 08:10:42;;;;;;;21.58;3.63;;;;;;;;;;5116864;28;20197;-67
2022/11/23 08:13:10;;;;;;;11.57;4.17;;;;;;;;;;5117382;28;20196;-67
2022/11/23 08:15:37;;;;;;;8.27;2.92;;;;;;;;;;5117047;28;20444;-68
2022/11/23 08:18:04;;;;;;;41.30;7.30;;;;;;;;;;5116986;28;20641;-67
2022/11/23 08:20:33;;;;;;;10.40;3.30;;;;;;;;;;5116686;28;20439;-67
2022/11/23 08:23:00;;;;;;;6.97;3.50;;;;;;;;;;5117092;28;20440;-68
2022/11/23 08:25:28;;;;;;;8.97;3.33;;;;;;;;;;5117239;28;20439;-67
2022/11/23 08:27:57;;;;;;;4.40;2.80;;;;;;;;;;5117129;28;20453;-68
2022/11/23 08:30:24;;;;;;;8.30;4.20;;;;;;;;;;5116792;28;20521;-67
2022/11/23 08:32:52;;;;;;;10.03;3.07;;;;;;;;;;5116532;28;20445;-68
2022/11/23 08:35:19;;;;;;;7.30;3.17;;;;;;;;;;5116387;28;20932;-67
2022/11/23 08:37:46;;;;;;;6.53;3.50;;;;;;;;;;5116867;28;20830;-67
2022/11/23 08:40:14;;;;;;;5.43;2.80;;;;;;;;;;5116895;28;20439;-67
2022/11/23 08:42:41;;;;;;;7.47;3.80;;;;;;;;;;5116695;28;20466;-67
2022/11/23 08:45:11;;;;;;;12.63;3.05;;;;;;;;;;5116487;28;20515;-67
2022/11/23 08:47:38;;;;;;;7.13;4.00;;;;;;;;;;5116601;28;20287;-67
2022/11/23 08:50:06;;;;;;;8.57;3.73;;;;;;;;;;5116308;28;20448;-67
2022/11/23 08:52:33;;;;;;;8.80;3.80;;;;;;;;;;5116350;28;20449;-68
2022/11/23 08:55:00;;;;;;;4.53;2.60;;;;;;;;;;5116257;28;20459;-67
2022/11/23 08:57:28;;;;;;;8.07;3.07;;;;;;;;;;5116564;28;20481;-67
2022/11/23 08:59:55;;;;;;;7.40;2.93;;;;;;;;;;5117045;28;20438;-68
2022/11/23 09:02:23;;;;;;;6.60;2.77;;;;;;;;;;5115893;28;20439;-67
2022/11/23 09:04:51;;;;;;;10.53;3.20;;;;;;;;;;5116161;28;20446;-68
2022/11/23 09:07:18;;;;;;;9.13;3.20;;;;;;;;;;5116223;28;20442;-68
2022/11/23 09:09:45;;;;;;;9.20;2.87;;;;;;;;;;5115754;28;20188;-67
2022/11/23 09:12:12;;;;;;;19.55;3.78;;;;;;;;;;5116351;28;20882;-67
2022/11/23 09:14:39;;;;;;;9.60;3.20;;;;;;;;;;5115763;28;20207;-67
2022/11/23 09:17:07;;;;;;;12.13;3.80;;;;;;;;;;5115839;27;20471;-67
2022/11/23 09:19:35;;;;;;;6.90;3.40;;;;;;;;;;5114815;28;20450;-67
2022/11/23 09:22:02;;;;;;;14.37;3.33;;;;;;;;;;5115800;28;20447;-67
2022/11/23 09:24:30;;;;;;;8.13;4.10;;;;;;;;;;5115899;28;20439;-67
2022/11/23 09:26:57;;;;;;;11.93;2.87;;;;;;;;;;5115818;28;20449;-67
2022/11/23 09:29:25;;;;;;;9.80;3.43;;;;;;;;;;5115754;27;20508;-67
2022/11/23 09:31:52;;;;;;;3.63;2.13;;;;;;;;;;5115484;28;20479;-68
2022/11/23 09:34:20;;;;;;;6.93;2.70;;;;;;;;;;5115222;28;20440;-67
2022/11/23 09:36:48;;;;;;;7.80;3.35;;;;;;;;;;5115518;28;20435;-67
2022/11/23 09:39:15;;;;;;;5.27;3.67;;;;;;;;;;5115554;28;20239;-68
2022/11/23 09:41:49;;;;;;;5.57;2.70;;;;;;;;;;5115128;28;20444;-66
2022/11/23 09:44:20;;;;;;;6.03;2.60;;;;;;;;;;5115117;28;20431;-67
2022/11/23 09:46:54;;;;;;;12.93;3.03;;;;;;;;;;5115001;28;20427;-67
2022/11/23 09:49:22;;;;;;;6.78;2.38;;;;;;;;;;5116152;28;20426;-68
2022/11/23 09:51:54;;;;;;;21.27;3.80;;;;;;;;;;5114878;28;20193;-67
2022/11/23 09:54:28;;;;;;;7.17;2.60;;;;;;;;;;5115366;28;20856;-67
2022/11/23 09:56:56;;;;;;;9.80;2.57;;;;;;;;;;5115215;28;20769;-68
2022/11/23 09:59:28;;;;;;;8.93;2.83;;;;;;;;;;5114816;28;20470;-68
2022/11/23 10:01:56;;;;;;;13.33;3.50;;;;;;;;;;5115278;28;20431;-68
2022/11/23 10:04:24;;;;;;;23.17;4.00;;;;;;;;;;5115038;28;20518;-67
2022/11/23 10:06:55;;;;;;;17.27;3.93;;;;;;;;;;5114597;28;20952;-68
2022/11/23 10:09:27;;;;;;;10.00;2.80;;;;;;;;;;5115238;28;20432;-68
2022/11/23 10:12:01;;;;;;;8.67;2.30;;;;;;;;;;5114897;28;20451;-67
2022/11/23 10:14:34;;;;;;;6.47;2.30;;;;;;;;;;5114915;28;20431;-67
2022/11/23 10:17:04;;;;;;;6.10;2.97;;;;;;;;;;5115027;28;20428;-67
2022/11/23 10:19:37;;;;;;;12.30;3.50;;;;;;;;;;5114274;28;20435;-68
2022/11/23 10:22:09;;;;;;;9.00;2.70;;;;;;;;;;5114819;28;20432;-67
2022/11/23 10:24:40;;;;;;;15.53;2.70;;;;;;;;;;5114994;28;20519;-68
2022/11/23 10:27:12;;;;;;;7.37;2.20;;;;;;;;;;5114888;28;20432;-68
2022/11/23 10:29:40;;;;;;;11.10;6.53;;;;;;;;;;5115022;28;20507;-67
2022/11/23 10:32:16;;;;;;;11.47;3.80;;;;;;;;;;5114407;28;20536;-67
2022/11/23 10:34:47;;;;;;;6.70;2.07;;;;;;;;;;5114891;28;20523;-67
2022/11/23 10:37:16;;;;;;;8.53;3.03;;;;;;;;;;5114449;28;20490;-67
2022/11/23 10:39:43;;;;;;;10.90;3.27;;;;;;;;;;5114022;28;20446;-67
2022/11/23 10:42:17;;;;;;;9.60;2.70;;;;;;;;;;5113813;28;20503;-68
2022/11/23 10:44:46;;;;;;;12.77;2.80;;;;;;;;;;5114410;28;20445;-67
2022/11/23 10:47:33;;;;;;;7.73;2.33;;;;;;;;;;5113851;28;20967;-67
2022/11/23 10:50:00;;;;;;;8.03;2.53;;;;;;;;;;5114000;28;21000;-67
2022/11/23 10:52:29;;;;;;;10.00;2.70;;;;;;;;;;5114110;28;20446;-67
2022/11/23 10:54:58;;;;;;;5.87;2.70;;;;;;;;;;5114408;28;20445;-67
2022/11/23 10:57:31;;;;;;;7.63;2.40;;;;;;;;;;5113636;28;20474;-67
2022/11/23 10:59:59;;;;;;;8.50;3.60;;;;;;;;;;5114360;28;20442;-67
2022/11/23 11:02:26;;;;;;;3.80;3.17;;;;;;;;;;5114177;28;20443;-67
2022/11/23 11:05:13;;;;;;;11.13;2.20;;;;;;;;;;5113779;28;20434;-67
2022/11/23 11:07:41;;;;;;;14.67;2.87;;;;;;;;;;5113680;28;20432;-67
2022/11/23 11:10:29;;;;;;;7.03;2.50;;;;;;;;;;5113963;28;20427;-67
2022/11/23 11:12:58;;;;;;;6.80;2.47;;;;;;;;;;5114083;28;20427;-67
2022/11/23 11:15:25;;;;;;;5.90;2.87;;;;;;;;;;5113590;28;20431;-66
2022/11/23 11:17:55;;;;;;;6.87;2.50;;;;;;;;;;5113703;28;20464;-67
2022/11/23 11:20:31;;;;;;;8.90;2.43;;;;;;;;;;5113918;28;20439;-68
2022/11/23 11:23:01;;;;;;;6.90;2.60;;;;;;;;;;5113985;28;20415;-68
2022/11/23 11:25:29;;;;;;;4.20;2.40;;;;;;;;;;5113730;28;20443;-68
2022/11/23 11:27:58;;;;;;;6.53;2.40;;;;;;;;;;5113393;28;20434;-67
2022/11/23 11:30:27;;;;;;;8.23;2.50;;;;;;;;;;5113480;28;20443;-67
2022/11/23 11:32:58;;;;;;;7.83;2.70;;;;;;;;;;5113823;28;20435;-67
2022/11/23 11:35:27;;;;;;;6.20;3.20;;;;;;;;;;5113784;28;20446;-67
2022/11/23 11:37:56;;;;;;;9.40;2.70;;;;;;;;;;5113679;28;20566;-68
2022/11/23 11:40:29;;;;;;;4.37;2.50;;;;;;;;;;5113381;28;20450;-67
2022/11/23 11:42:58;;;;;;;5.73;2.40;;;;;;;;;;5115006;28;20557;-67
2022/11/23 11:45:26;;;;;;;4.50;2.50;;;;;;;;;;5117410;28;20530;-67
2022/11/23 11:47:56;;;;;;;11.03;3.00;;;;;;;;;;5117251;28;20443;-67
2022/11/23 11:50:25;;;;;;;9.23;2.77;;;;;;;;;;5117597;28;20536;-67
2022/11/23 11:52:55;;;;;;;12.00;3.10;;;;;;;;;;5117207;28;20487;-68
2022/11/23 11:55:25;;;;;;;11.47;2.70;;;;;;;;;;5117475;28;20452;-68
2022/11/23 11:57:56;;;;;;;5.83;2.50;;;;;;;;;;5117160;28;20995;-67
2022/11/23 12:00:23;;;;;;;12.73;3.10;;;;;;;;;;5117085;28;20433;-68
2022/11/23 12:02:56;;;;;;;18.93;2.70;;;;;;;;;;5118010;28;20459;-68
2022/11/23 12:05:25;;;;;;;8.13;3.00;;;;;;;;;;5117516;28;20513;-67
2022/11/23 12:07:56;;;;;;;10.23;3.10;;;;;;;;;;5117221;28;20538;-68
2022/11/23 12:10:27;;;;;;;14.93;4.57;;;;;;;;;;5117438;28;20434;-68
2022/11/23 12:12:56;;;;;;;9.30;2.87;;;;;;;;;;5117516;28;20423;-67
2022/11/23 12:15:27;;;;;;;8.77;2.53;;;;;;;;;;5117278;28;20545;-67
2022/11/23 12:18:13;;;;;;;18.80;3.40;;;;;;;;;;5117466;28;20490;-67
2022/11/23 12:20:43;;;;;;;8.37;2.40;;;;;;;;;;5117651;28;21012;-67
2022/11/23 12:23:18;;;;;;;7.37;2.63;;;;;;;;;;5117122;28;20445;-67
2022/11/23 12:25:51;;;;;;;8.40;2.10;;;;;;;;;;5117009;28;20861;-67
2022/11/23 12:28:33;;;;;;;8.93;2.40;;;;;;;;;;5117149;28;20441;-67
2022/11/23 12:31:05;;;;;;;9.47;2.60;;;;;;;;;;5116611;28;20902;-67
2022/11/23 12:33:42;;;;;;;8.27;2.60;;;;;;;;;;5116432;28;20518;-68
2022/11/23 12:36:24;;;;;;;6.43;3.03;;;;;;;;;;5116888;28;20545;-67
2022/11/23 12:38:55;;;;;;;10.43;2.90;;;;;;;;;;5116907;28;20553;-68
2022/11/23 12:41:30;;;;;;;6.93;2.37;;;;;;;;;;5116910;28;20451;-67
2022/11/23 12:44:04;;;;;;;4.17;2.70;;;;;;;;;;5116571;28;20900;-67
2022/11/23 12:46:35;;;;;;;5.93;2.30;;;;;;;;;;5117124;28;20861;-67
2022/11/23 12:49:09;;;;;;;6.70;2.50;;;;;;;;;;5116456;28;20447;-68
2022/11/23 12:51:41;;;;;;;5.80;2.40;;;;;;;;;;5116206;28;20428;-68
2022/11/23 12:54:16;;;;;;;10.10;2.50;;;;;;;;;;5114854;28;20513;-69
2022/11/23 12:56:48;;;;;;;6.73;2.63;;;;;;;;;;5116858;28;20450;-66
2022/11/23 12:59:18;;;;;;;10.30;3.53;;;;;;;;;;5115796;28;20467;-65
2022/11/23 13:01:48;;;;;;;9.20;3.67;;;;;;;;;;5115876;28;20449;-65
2022/11/23 13:04:32;;;;;;;12.93;3.10;;;;;;;;;;5115876;28;20467;-65
2022/11/23 13:07:14;;;;;;;11.70;3.53;;;;;;;;;;5116132;28;20514;-64
2022/11/23 13:09:50;;;;;;;6.83;2.60;;;;;;;;;;5116379;28;20855;-64
2022/11/23 13:12:24;;;;;;;5.03;2.47;;;;;;;;;;5116318;28;20534;-65
2022/11/23 13:14:58;;;;;;;7.33;2.90;;;;;;;;;;5114706;28;20443;-65
2022/11/23 13:17:29;;;;;;;5.70;2.60;;;;;;;;;;5115115;28;20436;-65
2022/11/23 13:20:07;;;;;;;10.67;2.70;;;;;;;;;;5114192;28;21038;-65
2022/11/23 13:22:34;;;;;;;9.00;2.87;;;;;;;;;;5114675;28;20506;-65
2022/11/23 13:25:20;;;;;;;4.47;2.23;;;;;;;;;;5115583;28;20546;-65
2022/11/23 13:27:57;;;;;;;9.20;3.00;;;;;;;;;;5115064;28;20449;-65
2022/11/23 13:30:27;;;;;;;7.73;2.73;;;;;;;;;;5115532;28;20780;-65
2022/11/23 13:32:56;;;;;;;6.90;2.87;;;;;;;;;;5115367;28;20464;-65
2022/11/23 13:35:41;;;;;;;5.50;2.20;;;;;;;;;;5115041;28;21022;-65
2022/11/23 13:38:28;;;;;;;7.37;3.00;;;;;;;;;;5115373;28;20485;-65
2022/11/23 13:40:55;;;;;;;4.57;2.50;;;;;;;;;;5115304;28;20538;-65
2022/11/23 13:43:25;;;;;;;8.50;2.33;;;;;;;;;;5114771;28;20562;-65
2022/11/23 13:46:27;;;;;;;5.40;2.33;;;;;;;;;;5114718;28;20534;-65
2022/11/23 13:48:58;;;;;;;13.40;2.80;;;;;;;;;;5051381;28;20452;-65
2022/11/23 13:51:27;;;;;;;11.30;3.83;;;;;;;;;;5052277;28;20540;-65
2022/11/23 13:53:57;;;;;;;7.40;2.73;;;;;;;;;;5083523;28;20467;-65
2022/11/23 13:56:31;;;;;;;6.57;2.57;;;;;;;;;;5115095;28;20525;-65
2022/11/23 13:58:59;;;;;;;11.00;2.77;;;;;;;;;;5115660;28;20470;-65
2022/11/23 14:01:45;;;;;;;6.90;3.27;;;;;;;;;;5114592;27;20444;-65
2022/11/23 14:04:23;;;;;;;5.07;3.10;;;;;;;;;;5114823;28;20452;-65
2022/11/23 14:06:53;;;;;;;7.10;2.50;;;;;;;;;;5114440;28;20431;-65
2022/11/23 14:09:24;;;;;;;8.13;3.00;;;;;;;;;;5114347;28;20447;-66
2022/11/23 14:11:53;;;;;;;5.40;2.83;;;;;;;;;;5114874;28;20446;-66
2022/11/23 14:14:23;;;;;;;14.30;4.03;;;;;;;;;;5114336;28;20442;-66
2022/11/23 14:16:59;;;;;;;8.10;2.60;;;;;;;;;;5114333;28;20482;-66
2022/11/23 14:19:35;;;;;;;5.83;2.77;;;;;;;;;;5114549;28;20462;-65
2022/11/23 14:22:07;;;;;;;6.93;2.57;;;;;;;;;;5114299;28;20513;-65
2022/11/23 14:24:43;;;;;;;15.33;3.17;;;;;;;;;;5114385;28;20444;-66
2022/11/23 14:27:21;;;;;;;6.43;2.60;;;;;;;;;;5114745;28;20780;-66
2022/11/23 14:30:03;;;;;;;9.27;3.13;;;;;;;;;;5114470;28;20534;-65
2022/11/23 14:32:36;;;;;;;5.40;2.70;;;;;;;;;;5114151;28;20428;-65
2022/11/23 14:35:20;;;;;;;9.03;3.93;;;;;;;;;;5113796;28;20436;-66
2022/11/23 14:37:53;;;;;;;8.15;2.25;;;;;;;;;;5114396;28;20457;-67
2022/11/23 14:40:24;;;;;;;5.43;2.90;;;;;;;;;;5114260;28;20208;-66
2022/11/23 14:42:53;;;;;;;4.70;2.77;;;;;;;;;;5114783;28;20479;-66
2022/11/23 14:45:21;;;;;;;4.37;3.07;;;;;;;;;;5114094;28;20535;-66
2022/11/23 14:47:48;;;;;;;11.03;2.77;;;;;;;;;;5113943;28;21019;-65
2022/11/23 14:50:25;;;;;;;6.20;2.73;;;;;;;;;;5113800;28;20521;-65
2022/11/23 14:52:53;;;;;;;5.82;2.75;;;;;;;;;;5114743;28;20435;-64